Time;durP1;ratioP1;P1;durP2;ratioP2;P2;SDS_P1;SDS_P2;PMS_P1;PMS_P2;Temp;Humidity;BMP_temperature;BMP_pressure;BME280_temperature;BME280_humidity;BME280_pressure;Samples;Min_cycle;Max_cycle;Signal;HPM_P1;HPM_P2
2023/05/13 00:00:23;;;;;;;4.20;4.00;;;20.40;52.10;;;;;;5009871;28;20226;-80
2023/05/13 00:02:48;;;;;;;4.70;4.50;;;20.40;52.10;;;;;;5003894;28;20218;-79
2023/05/13 00:05:14;;;;;;;4.70;4.30;;;20.40;52.10;;;;;;5009628;28;20218;-77
2023/05/13 00:07:40;;;;;;;4.53;4.23;;;20.40;52.00;;;;;;4982705;28;21029;-77
2023/05/13 00:10:06;;;;;;;3.67;3.47;;;20.40;52.00;;;;;;5011425;28;20681;-79
2023/05/13 00:12:32;;;;;;;4.43;4.23;;;20.40;52.10;;;;;;5006368;28;20452;-79
2023/05/13 00:14:57;;;;;;;4.00;3.80;;;20.40;52.10;;;;;;5016892;28;20463;-79
2023/05/13 00:17:23;;;;;;;4.40;4.20;;;20.40;52.10;;;;;;5018227;28;20297;-79
2023/05/13 00:19:48;;;;;;;4.50;4.30;;;20.40;52.10;;;;;;5017146;28;20215;-79
2023/05/13 00:22:14;;;;;;;4.17;3.97;;;20.40;52.10;;;;;;5018672;28;20610;-80
2023/05/13 00:24:39;;;;;;;4.30;4.10;;;20.40;52.10;;;;;;5016677;28;20705;-79
2023/05/13 00:27:05;;;;;;;4.13;3.93;;;20.40;52.10;;;;;;5005714;28;20226;-79
2023/05/13 00:29:31;;;;;;;5.50;4.30;;;20.40;52.10;;;;;;5019263;28;21807;-78
2023/05/13 00:31:56;;;;;;;4.07;3.87;;;20.40;52.10;;;;;;5016436;28;20214;-80
2023/05/13 00:34:23;;;;;;;4.13;3.93;;;20.40;52.10;;;;;;5003972;28;20223;-79
2023/05/13 00:36:48;;;;;;;3.90;3.70;;;20.40;52.10;;;;;;5015386;28;20229;-80
2023/05/13 00:39:14;;;;;;;4.23;4.03;;;20.40;52.10;;;;;;4999115;28;20452;-80
2023/05/13 00:41:39;;;;;;;4.30;4.10;;;20.40;52.10;;;;;;5015862;28;20219;-79
2023/05/13 00:44:05;;;;;;;4.30;4.00;;;20.40;52.10;;;;;;4998072;28;20673;-80
2023/05/13 00:46:34;;;;;;;4.50;4.30;;;20.40;52.90;;;;;;4997865;28;20218;-80
2023/05/13 00:49:00;;;;;;;4.67;4.47;;;20.40;52.20;;;;;;5016733;28;20225;-79
2023/05/13 00:51:26;;;;;;;4.10;3.90;;;20.40;52.10;;;;;;5009864;28;20464;-79
2023/05/13 00:53:52;;;;;;;4.27;3.97;;;20.30;52.10;;;;;;5013547;28;20233;-80
2023/05/13 00:56:20;;;;;;;4.17;3.97;;;20.40;52.10;;;;;;5015305;28;21022;-79
2023/05/13 00:58:46;;;;;;;4.03;3.83;;;20.40;52.10;;;;;;5014663;28;20308;-80
2023/05/13 01:01:39;;;;;;;4.30;4.00;;;20.40;52.90;;;;;;5013742;28;20472;-78
2023/05/13 01:04:27;;;;;;;4.80;4.60;;;20.40;52.10;;;;;;5014814;28;20319;-79
2023/05/13 01:07:21;;;;;;;4.17;3.87;;;20.40;52.10;;;;;;5001174;28;20457;-77
2023/05/13 01:10:07;;;;;;;4.60;4.40;;;20.40;52.10;;;;;;5000174;28;20464;-79
2023/05/13 01:12:37;;;;;;;4.10;3.90;;;20.40;52.10;;;;;;5010265;28;20456;-80
2023/05/13 01:15:04;;;;;;;4.37;4.17;;;20.40;52.20;;;;;;4999640;28;20444;-80
2023/05/13 01:17:58;;;;;;;4.77;4.43;;;20.30;52.10;;;;;;5007416;28;20505;-80
2023/05/13 01:20:26;;;;;;;4.53;4.33;;;20.30;52.10;;;;;;5005447;28;20479;-80
2023/05/13 01:22:51;;;;;;;4.50;4.30;;;20.30;52.10;;;;;;4999313;28;20492;-79
2023/05/13 01:25:17;;;;;;;4.10;3.90;;;20.30;52.10;;;;;;5014070;28;20474;-80
2023/05/13 01:27:43;;;;;;;4.10;3.90;;;20.40;52.20;;;;;;4993818;28;20234;-79
2023/05/13 01:30:09;;;;;;;4.10;3.90;;;20.30;52.10;;;;;;4977460;28;20231;-78
2023/05/13 01:32:37;;;;;;;4.37;4.17;;;20.30;52.10;;;;;;5002430;28;20243;-79
2023/05/13 01:35:04;;;;;;;4.57;4.37;;;20.40;52.20;;;;;;5010783;28;20449;-79
2023/05/13 01:37:29;;;;;;;4.20;4.00;;;20.30;52.10;;;;;;5009923;28;20457;-79
2023/05/13 01:39:55;;;;;;;4.20;4.00;;;20.30;52.10;;;;;;5006245;28;20467;-78
2023/05/13 01:42:22;;;;;;;4.03;3.83;;;20.40;52.20;;;;;;5004433;28;20558;-81
2023/05/13 01:44:49;;;;;;;4.10;3.90;;;20.30;52.10;;;;;;5010979;28;20310;-80
2023/05/13 01:47:15;;;;;;;4.60;4.20;;;20.40;52.10;;;;;;5005688;28;20526;-82
2023/05/13 01:49:41;;;;;;;4.10;3.90;;;20.30;52.10;;;;;;5016612;28;21021;-81
2023/05/13 01:52:06;;;;;;;4.37;4.17;;;20.30;52.10;;;;;;5010380;28;20230;-80
2023/05/13 01:54:32;;;;;;;3.67;3.47;;;20.30;52.10;;;;;;4983628;28;20813;-81
2023/05/13 01:56:57;;;;;;;3.77;3.57;;;20.40;52.10;;;;;;4990727;28;20212;-77
2023/05/13 01:59:23;;;;;;;4.40;4.20;;;20.30;52.10;;;;;;5000950;28;20219;-79
2023/05/13 02:01:48;;;;;;;4.57;4.37;;;20.30;52.10;;;;;;5012625;28;20687;-80
2023/05/13 02:04:14;;;;;;;4.40;4.20;;;20.40;52.10;;;;;;5010171;28;20223;-79
2023/05/13 02:06:40;;;;;;;4.40;4.20;;;20.40;52.10;;;;;;5006347;28;20224;-80
2023/05/13 02:09:05;;;;;;;4.70;4.50;;;20.30;52.10;;;;;;5005070;28;20585;-80
2023/05/13 02:11:31;;;;;;;4.20;4.00;;;20.30;52.10;;;;;;5001862;28;20743;-80
2023/05/13 02:13:56;;;;;;;4.23;4.03;;;20.30;52.10;;;;;;4989872;28;20231;-80
2023/05/13 02:16:22;;;;;;;4.30;4.03;;;20.30;52.10;;;;;;5003813;28;20305;-80
2023/05/13 02:18:47;;;;;;;4.60;4.40;;;20.30;52.10;;;;;;4996919;28;20578;-80
2023/05/13 02:21:13;;;;;;;4.87;4.67;;;20.30;52.80;;;;;;5019845;28;20233;-80
2023/05/13 02:23:38;;;;;;;4.90;4.60;;;20.30;52.10;;;;;;5003412;28;20698;-80
2023/05/13 02:26:04;;;;;;;4.47;4.27;;;20.30;52.10;;;;;;5014968;28;20362;-80
2023/05/13 02:28:30;;;;;;;4.30;4.10;;;20.30;52.10;;;;;;5006237;28;20246;-78
2023/05/13 02:30:55;;;;;;;4.50;4.30;;;20.30;52.10;;;;;;5015259;28;20670;-80
2023/05/13 02:33:21;;;;;;;4.57;4.37;;;20.30;52.10;;;;;;5007015;28;20235;-80
2023/05/13 02:35:46;;;;;;;4.77;4.57;;;20.30;52.90;;;;;;4991475;28;20246;-80
2023/05/13 02:38:12;;;;;;;4.07;3.87;;;20.30;52.10;;;;;;5012201;28;20301;-79
2023/05/13 02:40:37;;;;;;;4.67;4.47;;;20.30;52.10;;;;;;5005838;28;20252;-80
2023/05/13 02:43:03;;;;;;;4.40;4.20;;;20.30;52.10;;;;;;5012847;28;21060;-80
2023/05/13 02:45:29;;;;;;;4.83;4.63;;;20.30;52.10;;;;;;5015694;28;20272;-80
2023/05/13 02:47:56;;;;;;;4.40;4.20;;;20.30;52.10;;;;;;5011204;28;20232;-80
2023/05/13 02:50:22;;;;;;;4.00;3.80;;;20.30;52.10;;;;;;4998337;28;20438;-80
2023/05/13 02:52:47;;;;;;;5.00;4.80;;;20.30;52.10;;;;;;5008513;28;21024;-79
2023/05/13 02:55:13;;;;;;;4.10;3.90;;;20.30;52.10;;;;;;4995945;28;21187;-80
2023/05/13 02:57:38;;;;;;;5.03;4.83;;;20.30;52.20;;;;;;5008963;28;20305;-80
2023/05/13 03:00:05;;;;;;;4.70;4.50;;;20.30;52.10;;;;;;5003906;28;20242;-80
2023/05/13 03:02:31;;;;;;;4.13;3.93;;;20.30;52.20;;;;;;4993819;28;20357;-80
2023/05/13 03:04:57;;;;;;;4.70;4.50;;;20.30;52.10;;;;;;4987533;28;20550;-79
2023/05/13 03:07:23;;;;;;;4.90;4.70;;;20.30;52.10;;;;;;5003167;28;20597;-80
2023/05/13 03:09:49;;;;;;;4.40;4.20;;;20.30;52.20;;;;;;4998613;28;20585;-80
2023/05/13 03:12:15;;;;;;;4.83;4.53;;;20.30;52.20;;;;;;5010268;28;20479;-80
2023/05/13 03:14:41;;;;;;;5.00;4.80;;;20.30;52.10;;;;;;5016459;28;20226;-79
2023/05/13 03:17:07;;;;;;;4.30;4.10;;;20.30;52.60;;;;;;5018242;28;20222;-79
2023/05/13 03:19:35;;;;;;;4.27;4.07;;;20.30;52.10;;;;;;5018883;28;20520;-80
2023/05/13 03:22:01;;;;;;;5.13;4.90;;;20.30;52.20;;;;;;5017569;28;20234;-80
2023/05/13 03:24:26;;;;;;;4.37;4.17;;;20.30;52.20;;;;;;5017075;28;20471;-80
2023/05/13 03:26:52;;;;;;;4.63;4.40;;;20.30;52.20;;;;;;5005919;28;20227;-80
2023/05/13 03:29:18;;;;;;;4.60;4.40;;;20.30;52.20;;;;;;5017398;28;20238;-79
2023/05/13 03:31:44;;;;;;;5.10;4.90;;;20.30;52.10;;;;;;5015777;28;20223;-80
2023/05/13 03:34:09;;;;;;;5.07;4.77;;;20.30;52.10;;;;;;5017017;28;20231;-77
2023/05/13 03:36:35;;;;;;;4.73;4.53;;;20.30;52.10;;;;;;5018376;28;20433;-79
2023/05/13 03:39:01;;;;;;;4.57;4.27;;;20.30;52.10;;;;;;5016029;28;21665;-80
2023/05/13 03:41:27;;;;;;;4.90;4.70;;;20.30;52.20;;;;;;5020713;28;20222;-80
2023/05/13 03:43:53;;;;;;;5.00;4.80;;;20.30;52.20;;;;;;5017593;28;20348;-80
2023/05/13 03:46:18;;;;;;;4.80;4.57;;;20.30;52.10;;;;;;5021229;28;20459;-79
2023/05/13 03:48:44;;;;;;;4.97;4.77;;;20.30;52.10;;;;;;4996923;28;20464;-79
2023/05/13 03:51:10;;;;;;;4.90;4.70;;;20.30;52.10;;;;;;5000049;28;20231;-79
2023/05/13 03:53:35;;;;;;;4.90;4.70;;;20.30;52.20;;;;;;5015559;28;20234;-79
2023/05/13 03:56:01;;;;;;;4.90;4.70;;;20.30;52.20;;;;;;5017134;28;20244;-79
2023/05/13 03:58:26;;;;;;;4.73;4.53;;;20.30;52.10;;;;;;5019191;28;20276;-79
2023/05/13 04:00:52;;;;;;;4.97;4.67;;;20.30;52.10;;;;;;5019679;28;20304;-80
2023/05/13 04:03:18;;;;;;;4.50;4.30;;;20.30;52.10;;;;;;5011156;28;20226;-79
2023/05/13 04:05:45;;;;;;;4.50;4.30;;;20.30;52.10;;;;;;5014415;28;20353;-79
2023/05/13 04:08:11;;;;;;;4.60;4.40;;;20.30;52.20;;;;;;4996898;28;20230;-79
2023/05/13 04:10:37;;;;;;;4.70;4.50;;;20.30;52.20;;;;;;4996114;28;20458;-81
2023/05/13 04:13:03;;;;;;;4.83;4.53;;;20.30;52.20;;;;;;4989443;28;20530;-80
2023/05/13 04:15:29;;;;;;;4.90;4.70;;;20.30;52.20;;;;;;5004772;28;20227;-79
2023/05/13 04:17:54;;;;;;;4.30;4.00;;;20.30;52.20;;;;;;5001741;28;20720;-77
2023/05/13 04:20:20;;;;;;;4.83;4.63;;;20.30;52.20;;;;;;4993789;28;20463;-80
2023/05/13 04:22:46;;;;;;;5.03;4.73;;;20.30;52.20;;;;;;5002194;28;20239;-78
2023/05/13 04:25:12;;;;;;;5.50;5.20;;;20.30;52.20;;;;;;4997765;28;20230;-79
2023/05/13 04:27:37;;;;;;;4.60;4.40;;;20.30;52.20;;;;;;5015852;28;20455;-80
2023/05/13 04:30:03;;;;;;;4.87;4.67;;;20.30;52.20;;;;;;5012635;28;20231;-78
2023/05/13 04:32:29;;;;;;;5.30;5.00;;;20.30;52.20;;;;;;5010650;28;20237;-78
2023/05/13 04:34:54;;;;;;;5.17;4.87;;;20.30;52.20;;;;;;4995225;28;20479;-77
2023/05/13 04:37:20;;;;;;;5.30;5.00;;;20.30;52.20;;;;;;5017248;28;20227;-78
2023/05/13 04:39:46;;;;;;;5.10;4.90;;;20.30;52.20;;;;;;5001846;28;20751;-78
2023/05/13 04:42:12;;;;;;;5.10;4.90;;;20.30;52.20;;;;;;5015825;28;20211;-77
2023/05/13 04:44:38;;;;;;;5.10;4.90;;;20.30;52.20;;;;;;5016043;28;20749;-78
2023/05/13 04:47:04;;;;;;;4.93;4.73;;;20.30;52.10;;;;;;5017150;28;20453;-78
2023/05/13 04:49:29;;;;;;;5.13;4.93;;;20.30;52.20;;;;;;4996228;28;20223;-79
2023/05/13 04:51:56;;;;;;;4.90;4.60;;;20.30;52.20;;;;;;5017375;28;20225;-78
2023/05/13 04:54:21;;;;;;;5.00;4.70;;;20.30;52.10;;;;;;5018550;28;20206;-79
2023/05/13 04:56:47;;;;;;;5.97;5.67;;;20.30;52.10;;;;;;5018444;28;20494;-79
2023/05/13 04:59:12;;;;;;;5.30;5.00;;;20.30;52.10;;;;;;5018064;28;20260;-78
2023/05/13 05:01:38;;;;;;;5.37;5.07;;;20.30;52.00;;;;;;5019529;28;20207;-79
2023/05/13 05:04:04;;;;;;;5.43;4.93;;;20.30;52.00;;;;;;5013221;28;20269;-79
2023/05/13 05:06:31;;;;;;;4.70;4.50;;;20.30;52.00;;;;;;5014963;28;21168;-79
2023/05/13 05:08:57;;;;;;;4.90;4.70;;;20.30;52.00;;;;;;5019094;28;20978;-79
2023/05/13 05:11:22;;;;;;;4.97;4.77;;;20.30;52.70;;;;;;5019877;28;20447;-78
2023/05/13 05:13:48;;;;;;;5.40;5.20;;;20.30;51.90;;;;;;5017554;28;20240;-78
2023/05/13 05:16:13;;;;;;;5.13;4.83;;;20.30;51.90;;;;;;5018468;28;20239;-79
2023/05/13 05:18:42;;;;;;;4.80;4.60;;;20.30;51.90;;;;;;4999743;28;20223;-79
2023/05/13 05:21:08;;;;;;;5.37;5.07;;;20.40;52.00;;;;;;5015852;28;20246;-79
2023/05/13 05:23:35;;;;;;;4.90;4.70;;;20.30;51.80;;;;;;5002796;28;20479;-79
2023/05/13 05:26:00;;;;;;;5.03;4.77;;;20.30;51.80;;;;;;4991346;28;20456;-79
2023/05/13 05:28:26;;;;;;;5.10;4.80;;;20.30;51.80;;;;;;5000503;28;20493;-77
2023/05/13 05:30:52;;;;;;;4.67;4.47;;;20.30;51.70;;;;;;5009201;28;20756;-80
2023/05/13 05:33:18;;;;;;;5.23;4.93;;;20.30;51.70;;;;;;5012385;28;20753;-80
2023/05/13 05:35:43;;;;;;;4.70;4.50;;;20.30;51.70;;;;;;5011703;28;20628;-80
2023/05/13 05:38:11;;;;;;;4.67;4.47;;;20.30;51.70;;;;;;5013054;28;20708;-81
2023/05/13 05:40:40;;;;;;;4.50;4.30;;;20.40;51.80;;;;;;4986120;28;20674;-81
2023/05/13 05:43:06;;;;;;;5.43;5.17;;;20.30;51.70;;;;;;5016553;28;21072;-82
2023/05/13 05:45:34;;;;;;;5.33;5.10;;;20.40;51.80;;;;;;5011412;28;20509;-82
2023/05/13 05:48:00;;;;;;;5.10;4.90;;;20.30;51.70;;;;;;5014411;28;21008;-81
2023/05/13 05:50:27;;;;;;;5.57;5.27;;;20.40;51.80;;;;;;5004955;28;20440;-76
2023/05/13 05:52:52;;;;;;;5.60;5.30;;;20.40;51.90;;;;;;5006327;28;20321;-78
2023/05/13 05:55:18;;;;;;;4.57;4.37;;;20.40;51.70;;;;;;4993705;28;20476;-79
2023/05/13 05:57:44;;;;;;;4.80;4.60;;;20.40;51.70;;;;;;5004207;28;20218;-78
2023/05/13 06:00:10;;;;;;;4.80;4.60;;;20.40;51.70;;;;;;4980851;28;20223;-77
2023/05/13 06:02:36;;;;;;;4.30;4.10;;;20.40;51.70;;;;;;4994086;28;20218;-78
2023/05/13 06:05:01;;;;;;;5.20;4.90;;;20.40;51.70;;;;;;5009497;28;20467;-78
2023/05/13 06:07:27;;;;;;;5.20;4.90;;;20.40;51.70;;;;;;4987689;28;20540;-78
2023/05/13 06:09:53;;;;;;;4.67;4.40;;;20.40;51.80;;;;;;5000565;28;20222;-79
2023/05/13 06:12:19;;;;;;;4.83;4.63;;;20.40;51.70;;;;;;5003001;28;20289;-78
2023/05/13 06:14:44;;;;;;;4.43;4.23;;;20.40;51.70;;;;;;5001237;28;20471;-78
2023/05/13 06:17:13;;;;;;;4.60;4.40;;;20.40;51.70;;;;;;5003262;28;20785;-76
2023/05/13 06:19:41;;;;;;;5.00;4.70;;;20.40;51.70;;;;;;5010633;28;20214;-78
2023/05/13 06:22:07;;;;;;;4.50;4.30;;;20.40;51.60;;;;;;5013850;28;20467;-78
2023/05/13 06:24:33;;;;;;;4.70;4.50;;;20.40;51.60;;;;;;5006503;28;20479;-79
2023/05/13 06:26:58;;;;;;;5.30;5.10;;;20.40;51.60;;;;;;4996855;28;20438;-77
2023/05/13 06:29:24;;;;;;;4.90;4.70;;;20.40;51.60;;;;;;5013021;28;20218;-77
2023/05/13 06:31:49;;;;;;;4.30;4.10;;;20.40;51.70;;;;;;4998001;28;20249;-77
2023/05/13 06:34:15;;;;;;;4.30;4.10;;;20.40;51.60;;;;;;5019876;28;20203;-76
2023/05/13 06:36:42;;;;;;;4.67;4.47;;;20.40;51.60;;;;;;5012455;28;20219;-76
2023/05/13 06:39:08;;;;;;;4.70;4.40;;;20.40;51.60;;;;;;5008414;28;20309;-76
2023/05/13 06:41:34;;;;;;;4.23;4.03;;;20.40;51.60;;;;;;5014736;28;20451;-76
2023/05/13 06:44:00;;;;;;;4.87;4.60;;;20.40;51.50;;;;;;4994807;28;20506;-76
2023/05/13 06:46:25;;;;;;;4.13;3.93;;;20.40;51.50;;;;;;5000704;28;20746;-77
2023/05/13 06:48:52;;;;;;;4.43;4.23;;;20.40;51.50;;;;;;5009286;28;20548;-77
2023/05/13 06:51:18;;;;;;;4.23;3.97;;;20.50;51.60;;;;;;5007044;28;20216;-76
2023/05/13 06:53:43;;;;;;;4.93;4.73;;;20.40;51.50;;;;;;4998922;28;20519;-77
2023/05/13 06:56:09;;;;;;;4.47;4.27;;;20.50;51.50;;;;;;5011532;28;20232;-75
2023/05/13 06:58:35;;;;;;;4.00;3.80;;;20.50;51.50;;;;;;5001271;28;20222;-76
2023/05/13 07:01:01;;;;;;;4.93;4.63;;;20.50;51.40;;;;;;5008875;28;20886;-77
2023/05/13 07:03:26;;;;;;;4.50;4.30;;;20.50;51.40;;;;;;5000425;28;20215;-77
2023/05/13 07:05:52;;;;;;;4.57;4.37;;;20.50;51.30;;;;;;4985966;28;20447;-77
2023/05/13 07:08:17;;;;;;;4.70;4.50;;;20.50;51.30;;;;;;5007502;28;21199;-77
2023/05/13 07:10:43;;;;;;;5.03;4.83;;;20.50;51.30;;;;;;4980619;28;20222;-78
2023/05/13 07:13:10;;;;;;;4.40;4.20;;;20.50;51.30;;;;;;4989145;28;20230;-78
2023/05/13 07:15:35;;;;;;;4.60;4.40;;;20.60;51.40;;;;;;4985072;28;20969;-77
2023/05/13 07:18:01;;;;;;;4.20;4.00;;;20.50;51.30;;;;;;4990620;28;20435;-78
2023/05/13 07:20:27;;;;;;;4.27;3.97;;;20.50;51.30;;;;;;4996686;28;20305;-78
2023/05/13 07:22:52;;;;;;;4.80;4.60;;;20.50;51.30;;;;;;4999533;28;20255;-78
2023/05/13 07:25:18;;;;;;;4.93;4.60;;;20.50;51.30;;;;;;5000386;28;23612;-79
2023/05/13 07:27:44;;;;;;;4.30;4.10;;;20.50;51.30;;;;;;4999319;28;20226;-80
2023/05/13 07:30:11;;;;;;;4.23;4.03;;;20.50;51.30;;;;;;5004547;28;20227;-79
2023/05/13 07:32:37;;;;;;;4.80;4.53;;;20.50;52.10;;;;;;4994848;28;20559;-79
2023/05/13 07:35:04;;;;;;;4.07;3.87;;;20.50;51.30;;;;;;4984481;28;20977;-79
2023/05/13 07:37:29;;;;;;;4.83;4.60;;;20.50;51.40;;;;;;5010041;28;21062;-79
2023/05/13 07:39:55;;;;;;;4.67;4.37;;;20.50;51.40;;;;;;5003574;28;20451;-79
2023/05/13 07:42:20;;;;;;;3.93;3.73;;;20.50;51.40;;;;;;4974450;28;20251;-78
2023/05/13 07:44:46;;;;;;;4.77;4.57;;;20.50;51.50;;;;;;5000517;28;20555;-78
2023/05/13 07:47:12;;;;;;;4.30;4.10;;;20.50;51.40;;;;;;4999211;28;20223;-78
2023/05/13 07:49:37;;;;;;;7.33;4.80;;;20.50;51.40;;;;;;4996673;28;20659;-79
2023/05/13 07:52:03;;;;;;;6.60;5.10;;;20.50;51.40;;;;;;5011735;28;20438;-78
2023/05/13 07:54:29;;;;;;;7.33;5.17;;;20.50;51.40;;;;;;5019720;28;20214;-78
2023/05/13 07:56:54;;;;;;;10.70;5.20;;;20.50;51.40;;;;;;5002124;28;20350;-80
2023/05/13 07:59:20;;;;;;;19.80;6.63;;;20.50;51.40;;;;;;4994355;28;20207;-76
2023/05/13 08:01:45;;;;;;;38.63;9.23;;;20.50;51.30;;;;;;4999329;28;20775;-76
2023/05/13 08:04:11;;;;;;;34.87;8.93;;;20.50;51.30;;;;;;5000105;28;20307;-76
2023/05/13 08:06:36;;;;;;;43.03;8.13;;;20.50;51.40;;;;;;4994932;28;20216;-75
2023/05/13 08:09:02;;;;;;;32.63;8.30;;;20.60;51.30;;;;;;5003659;28;20625;-77
2023/05/13 08:11:28;;;;;;;27.87;7.00;;;20.60;51.40;;;;;;5001781;28;20211;-75
2023/05/13 08:13:54;;;;;;;19.23;7.97;;;20.50;51.40;;;;;;5013131;28;20284;-79
2023/05/13 08:16:19;;;;;;;20.10;8.00;;;20.60;51.40;;;;;;4999508;28;20586;-80
2023/05/13 08:18:45;;;;;;;24.13;6.37;;;20.60;51.40;;;;;;5008491;28;20290;-78
2023/05/13 08:21:10;;;;;;;15.47;7.03;;;20.60;51.30;;;;;;5007695;28;20226;-79
2023/05/13 08:23:37;;;;;;;19.47;7.30;;;20.60;51.40;;;;;;4997638;28;20226;-79
2023/05/13 08:26:03;;;;;;;25.90;7.17;;;20.60;51.30;;;;;;4977669;28;20223;-78
2023/05/13 08:28:28;;;;;;;14.73;6.70;;;20.60;51.40;;;;;;5008589;28;20468;-77
2023/05/13 08:31:01;;;;;;;22.70;7.23;;;20.60;51.40;;;;;;5011904;28;20446;-77
2023/05/13 08:33:29;;;;;;;17.20;6.27;;;20.60;51.40;;;;;;5006129;28;20231;-77
2023/05/13 08:35:55;;;;;;;18.13;7.03;;;20.60;51.40;;;;;;5007144;28;20472;-77
2023/05/13 08:38:23;;;;;;;20.93;7.53;;;20.60;51.40;;;;;;5009534;28;20506;-78
2023/05/13 08:40:49;;;;;;;18.80;7.77;;;20.60;51.40;;;;;;5005889;28;20226;-80
2023/05/13 08:43:15;;;;;;;12.83;6.10;;;20.60;51.40;;;;;;5002908;28;21025;-81
2023/05/13 08:45:44;;;;;;;26.00;7.17;;;20.60;51.40;;;;;;5007426;28;20233;-81
2023/05/13 08:48:11;;;;;;;20.00;7.07;;;20.60;52.20;;;;;;4992970;28;20476;-79
2023/05/13 08:50:37;;;;;;;18.70;6.60;;;20.60;51.40;;;;;;5004749;28;20448;-78
2023/05/13 08:53:05;;;;;;;16.20;7.27;;;20.60;51.40;;;;;;4985465;28;23047;-81
2023/05/13 08:55:31;;;;;;;14.30;6.70;;;20.60;51.40;;;;;;4989890;28;20477;-80
2023/05/13 08:57:57;;;;;;;10.53;5.97;;;20.60;51.40;;;;;;5003462;28;20493;-79
2023/05/13 09:00:22;;;;;;;12.90;6.30;;;20.60;51.40;;;;;;4984945;28;20537;-78
2023/05/13 09:02:50;;;;;;;14.83;6.57;;;20.60;51.40;;;;;;5006160;28;20285;-79
2023/05/13 09:05:17;;;;;;;15.40;5.90;;;20.60;51.40;;;;;;5004511;28;20220;-79
2023/05/13 09:07:42;;;;;;;13.53;6.10;;;20.60;51.50;;;;;;4995079;28;20440;-80
2023/05/13 09:10:09;;;;;;;18.37;6.33;;;20.60;51.50;;;;;;4981803;28;20491;-79
2023/05/13 09:12:41;;;;;;;12.37;6.33;;;20.60;51.50;;;;;;5007679;28;20304;-78
2023/05/13 09:15:09;;;;;;;11.07;6.00;;;20.60;51.50;;;;;;5019541;28;20865;-78
2023/05/13 09:17:49;;;;;;;7.70;5.90;;;20.60;51.50;;;;;;5003491;28;20432;-78
2023/05/13 09:20:16;;;;;;;8.93;5.60;;;20.60;51.50;;;;;;5009724;28;21082;-78
2023/05/13 09:22:49;;;;;;;8.13;6.27;;;20.60;51.50;;;;;;5002988;28;21039;-77
2023/05/13 09:25:16;;;;;;;7.20;5.43;;;20.60;51.50;;;;;;5014132;28;20812;-77
2023/05/13 09:27:45;;;;;;;8.27;5.77;;;20.60;51.50;;;;;;5009806;28;20713;-76
2023/05/13 09:30:11;;;;;;;11.17;5.50;;;20.60;51.50;;;;;;5005243;28;20472;-76
2023/05/13 09:32:38;;;;;;;7.33;5.90;;;20.50;51.50;;;;;;5012661;28;20438;-77
2023/05/13 09:35:15;;;;;;;11.83;5.73;;;20.50;51.50;;;;;;4988613;28;20285;-77
2023/05/13 09:37:45;;;;;;;6.07;5.03;;;20.50;51.40;;;;;;4991746;28;20455;-77
2023/05/13 09:40:15;;;;;;;6.73;4.90;;;20.50;51.40;;;;;;5015044;28;20464;-78
2023/05/13 09:42:45;;;;;;;5.17;4.80;;;20.50;51.40;;;;;;5012268;28;20515;-77
2023/05/13 09:45:12;;;;;;;6.00;5.07;;;20.50;51.40;;;;;;5003937;28;20457;-76
2023/05/13 09:47:40;;;;;;;5.27;4.80;;;20.50;51.40;;;;;;5010657;28;21012;-75
2023/05/13 09:50:08;;;;;;;6.50;5.27;;;20.50;51.30;;;;;;4995496;28;20518;-74
2023/05/13 09:52:36;;;;;;;8.47;5.57;;;20.50;51.30;;;;;;5003594;28;20460;-77
2023/05/13 09:55:03;;;;;;;11.20;5.67;;;20.50;51.30;;;;;;5006872;28;20442;-76
2023/05/13 09:57:32;;;;;;;5.40;4.90;;;20.50;51.30;;;;;;5012236;28;20489;-75
2023/05/13 09:59:59;;;;;;;7.07;5.80;;;20.50;51.30;;;;;;4987670;28;20465;-76
2023/05/13 10:02:26;;;;;;;5.60;5.30;;;20.50;52.00;;;;;;5006126;28;20435;-76
2023/05/13 10:04:55;;;;;;;5.20;4.67;;;20.50;51.20;;;;;;5003165;28;20934;-77
2023/05/13 10:07:24;;;;;;;5.03;4.67;;;20.50;51.20;;;;;;5013194;28;20457;-76
2023/05/13 10:09:56;;;;;;;5.43;4.90;;;20.50;51.20;;;;;;4950487;28;20559;-76
2023/05/13 10:12:24;;;;;;;6.00;5.23;;;20.50;51.20;;;;;;5018094;28;21015;-76
2023/05/13 10:14:51;;;;;;;5.37;4.97;;;20.50;51.20;;;;;;5015414;28;20432;-78
2023/05/13 10:17:22;;;;;;;5.57;4.90;;;20.50;51.10;;;;;;5018840;28;20812;-80
2023/05/13 10:19:53;;;;;;;4.87;4.37;;;20.50;51.10;;;;;;5018874;28;20402;-77
2023/05/13 10:22:32;;;;;;;5.23;4.70;;;20.50;51.10;;;;;;5003471;28;20475;-81
2023/05/13 10:24:59;;;;;;;5.03;4.50;;;20.50;51.60;;;;;;4943240;28;20870;-78
2023/05/13 10:27:32;;;;;;;5.50;5.00;;;20.50;51.10;;;;;;5018290;28;20573;-79
2023/05/13 10:30:00;;;;;;;4.77;4.47;;;20.50;51.10;;;;;;4951710;28;20706;-79
2023/05/13 10:32:30;;;;;;;5.03;4.73;;;20.50;51.00;;;;;;4962032;28;20434;-79
2023/05/13 10:35:20;;;;;;;5.30;4.90;;;20.50;51.00;;;;;;5018717;28;20489;-79
2023/05/13 10:38:13;;;;;;;5.77;5.27;;;20.50;51.00;;;;;;4999727;28;20456;-83
2023/05/13 10:41:13;;;;;;;6.23;4.07;;;20.50;51.00;;;;;;5022064;28;20517;-80
2023/05/13 10:43:39;;;;;;;4.30;4.10;;;20.50;50.90;;;;;;5025016;28;20977;-80
2023/05/13 10:46:10;;;;;;;5.10;4.80;;;20.50;50.90;;;;;;5026714;28;20498;-82
2023/05/13 10:48:39;;;;;;;4.60;4.30;;;20.50;51.70;;;;;;5007264;28;20883;-77
2023/05/13 10:51:08;;;;;;;4.53;4.33;;;20.50;50.90;;;;;;5000863;28;20494;-77
2023/05/13 10:53:47;;;;;;;5.27;4.77;;;20.60;51.00;;;;;;5009411;28;20445;-78
2023/05/13 10:56:13;;;;;;;4.90;4.33;;;20.50;50.80;;;;;;5018840;28;20463;-83
2023/05/13 10:58:39;;;;;;;4.20;3.90;;;20.60;50.60;;;;;;5007263;28;20561;-77
2023/05/13 11:01:15;;;;;;;5.37;4.80;;;20.60;50.60;;;;;;5000113;28;21000;-78
2023/05/13 11:03:48;;;;;;;5.77;4.60;;;20.60;50.60;;;;;;5003075;28;20294;-80
2023/05/13 11:06:19;;;;;;;5.27;4.87;;;20.60;50.60;;;;;;5019359;28;20423;-78
2023/05/13 11:08:47;;;;;;;4.87;4.57;;;20.60;50.60;;;;;;5024448;28;20408;-77
2023/05/13 11:11:21;;;;;;;4.83;4.43;;;20.60;50.60;;;;;;5003224;28;20817;-75
2023/05/13 11:13:51;;;;;;;4.67;4.47;;;20.60;50.60;;;;;;5021056;28;20443;-75
2023/05/13 11:16:17;;;;;;;5.17;4.80;;;20.60;50.60;;;;;;5015319;28;20414;-76
2023/05/13 11:18:43;;;;;;;4.60;4.30;;;20.60;50.60;;;;;;5000173;28;20411;-76
2023/05/13 11:21:09;;;;;;;4.80;4.50;;;20.60;50.60;;;;;;5020157;28;20183;-76
2023/05/13 12:11:15;;;;;;;4.33;4.03;;;20.60;50.70;;;;;;4997156;28;20439;-75
2023/05/13 12:13:41;;;;;;;4.07;3.70;;;20.60;50.90;;;;;;5009119;28;20458;-76
2023/05/13 12:16:07;;;;;;;4.23;3.93;;;20.60;50.90;;;;;;5009309;28;20218;-75
2023/05/13 12:18:33;;;;;;;4.10;3.80;;;20.60;50.90;;;;;;5001665;28;20231;-75
2023/05/13 12:20:58;;;;;;;3.80;3.60;;;20.60;50.80;;;;;;4997210;28;20234;-75
2023/05/13 12:23:24;;;;;;;4.30;4.00;;;20.60;50.90;;;;;;5002459;28;20470;-74
2023/05/13 12:25:50;;;;;;;4.17;3.87;;;20.60;50.80;;;;;;5006472;28;20230;-74
2023/05/13 12:28:20;;;;;;;4.40;4.00;;;20.60;50.80;;;;;;4985543;28;20238;-74
2023/05/13 12:30:57;;;;;;;4.47;4.17;;;20.60;50.80;;;;;;4996978;28;20765;-76
2023/05/13 12:33:28;;;;;;;4.23;3.97;;;20.60;50.80;;;;;;5008246;28;20464;-74
2023/05/13 12:36:21;;;;;;;4.73;4.53;;;20.60;50.90;;;;;;5003217;28;21232;-75
2023/05/13 12:38:59;;;;;;;4.50;4.20;;;20.60;50.80;;;;;;5010832;28;20519;-75
2023/05/13 12:41:31;;;;;;;4.43;4.13;;;20.60;50.90;;;;;;5007548;28;20469;-75
2023/05/13 12:43:59;;;;;;;4.10;3.90;;;20.60;51.00;;;;;;4995625;28;20444;-75
2023/05/13 12:46:24;;;;;;;3.90;3.70;;;20.60;51.00;;;;;;5001141;28;20500;-75
2023/05/13 12:49:01;;;;;;;4.20;4.00;;;20.60;51.00;;;;;;5005380;28;20478;-75
2023/05/13 12:51:26;;;;;;;3.90;3.70;;;20.60;51.00;;;;;;5006303;28;20597;-75
2023/05/13 12:53:53;;;;;;;3.80;3.60;;;20.60;50.90;;;;;;5006149;28;20453;-75
2023/05/13 12:56:23;;;;;;;4.13;3.93;;;20.60;50.80;;;;;;5004613;28;20318;-75
2023/05/13 12:58:49;;;;;;;4.63;3.53;;;20.60;50.90;;;;;;4994982;28;20771;-75
2023/05/13 13:01:16;;;;;;;4.07;3.77;;;20.60;50.80;;;;;;5001100;28;20469;-76
2023/05/13 13:03:42;;;;;;;4.10;3.90;;;20.60;50.90;;;;;;4996583;28;20507;-75
2023/05/13 13:06:09;;;;;;;4.50;4.20;;;20.60;50.90;;;;;;5005144;28;20571;-74
2023/05/13 13:08:35;;;;;;;4.00;3.70;;;20.60;50.80;;;;;;5007347;28;20682;-74
2023/05/13 13:11:01;;;;;;;4.80;4.60;;;20.60;50.80;;;;;;5012192;28;20458;-75
2023/05/13 13:13:27;;;;;;;4.00;3.80;;;20.60;50.80;;;;;;5003037;28;20538;-75
2023/05/13 13:15:52;;;;;;;4.13;3.93;;;20.60;50.80;;;;;;4994544;28;20291;-75
2023/05/13 13:18:18;;;;;;;3.97;3.70;;;20.60;50.70;;;;;;4989109;28;20219;-75
2023/05/13 13:20:43;;;;;;;4.27;4.07;;;20.60;50.70;;;;;;5007227;28;20237;-75
2023/05/13 13:23:09;;;;;;;4.10;3.80;;;20.60;50.70;;;;;;5009278;28;20226;-75
2023/05/13 13:25:35;;;;;;;4.23;3.93;;;20.60;50.80;;;;;;5009565;28;20321;-75
2023/05/13 13:28:01;;;;;;;4.30;4.10;;;20.60;50.80;;;;;;4990801;28;20235;-75
2023/05/13 13:30:26;;;;;;;4.10;3.90;;;20.60;50.70;;;;;;5001820;28;20223;-75
2023/05/13 13:32:52;;;;;;;3.90;3.70;;;20.60;50.70;;;;;;4992505;28;20226;-75